Time;durP1;ratioP1;P1;durP2;ratioP2;P2;SDS_P1;SDS_P2;PMS_P1;PMS_P2;Temp;Humidity;BMP_temperature;BMP_pressure;BME280_temperature;BME280_humidity;BME280_pressure;Samples;Min_cycle;Max_cycle;Signal;HPM_P1;HPM_P2
2023/10/24 00:02:25;;;;;;;9.73;7.90;;;;;;;11.61;100.00;154341.16;5026248;28;20475;-85
2023/10/24 00:04:52;;;;;;;9.47;8.47;;;;;;;11.61;100.00;154342.44;5005941;28;20468;-85
2023/10/24 00:07:19;;;;;;;11.10;8.17;;;;;;;11.59;100.00;154337.28;5025260;28;20490;-85
2023/10/24 00:09:45;;;;;;;8.17;7.43;;;;;;;11.56;100.00;154329.50;5027137;28;20563;-84
2023/10/24 00:12:12;;;;;;;9.33;8.33;;;;;;;11.55;100.00;154326.88;5029596;28;20845;-85
2023/10/24 00:14:38;;;;;;;8.60;7.80;;;;;;;11.57;100.00;154330.75;5047886;28;20474;-84
2023/10/24 00:17:05;;;;;;;9.63;8.63;;;;;;;11.59;100.00;154337.28;5030544;28;20470;-85
2023/10/24 00:19:31;;;;;;;9.60;8.53;;;;;;;11.58;100.00;154333.38;5022251;28;20448;-85
2023/10/24 00:22:00;;;;;;;7.80;7.00;;;;;;;11.58;100.00;154333.38;5007330;28;20456;-85
2023/10/24 00:24:27;;;;;;;9.40;8.13;;;;;;;11.58;100.00;154333.38;5007797;28;20495;-85
2023/10/24 00:26:55;;;;;;;9.03;7.67;;;;;;;11.56;100.00;154328.19;5038556;28;20451;-84
2023/10/24 00:29:21;;;;;;;8.73;7.93;;;;;;;11.60;100.00;154338.53;5015239;28;20463;-85
2023/10/24 00:31:48;;;;;;;8.07;7.37;;;;;;;11.61;100.00;154341.16;4994384;28;21096;-85
2023/10/24 00:34:14;;;;;;;10.20;8.20;;;;;;;11.61;100.00;154341.16;5015148;28;20496;-85
2023/10/24 00:36:43;;;;;;;8.70;7.80;;;;;;;11.59;100.00;154335.97;5028876;28;20458;-84
2023/10/24 00:39:10;;;;;;;8.97;8.13;;;;;;;11.59;100.00;154335.97;5034175;28;20948;-84
2023/10/24 00:41:37;;;;;;;8.77;7.90;;;;;;;11.58;100.00;154333.38;5030677;28;20467;-84
2023/10/24 00:44:04;;;;;;;9.03;7.93;;;;;;;11.57;100.00;154332.06;5032914;28;20456;-85
2023/10/24 00:46:31;;;;;;;9.37;8.47;;;;;;;11.59;100.00;154335.97;5013450;28;20448;-85
2023/10/24 00:48:57;;;;;;;8.47;7.63;;;;;;;11.58;100.00;154333.38;5048661;28;20832;-84
2023/10/24 00:51:24;;;;;;;11.00;8.63;;;;;;;11.59;100.00;154337.28;5034175;28;20483;-85
2023/10/24 00:53:50;;;;;;;8.97;8.07;;;;;;;11.58;100.00;154333.38;5049011;28;20900;-84
2023/10/24 00:56:19;;;;;;;9.97;7.77;;;;;;;11.57;100.00;154330.75;5028393;28;20464;-84
2023/10/24 00:58:45;;;;;;;8.97;8.07;;;;;;;11.58;100.00;154334.66;5051401;28;20486;-84
2023/10/24 01:01:13;;;;;;;8.90;8.00;;;;;;;11.58;100.00;154333.38;5023182;28;20459;-84
2023/10/24 01:03:40;;;;;;;8.63;7.70;;;;;;;11.59;100.00;154337.28;5025937;28;20432;-85
2023/10/24 01:06:07;;;;;;;9.70;8.70;;;;;;;11.58;100.00;154334.66;5021942;28;20459;-85
2023/10/24 01:08:33;;;;;;;9.13;7.90;;;;;;;11.55;100.00;154325.59;5025606;28;20455;-84
2023/10/24 01:11:00;;;;;;;9.93;7.83;;;;;;;11.56;100.00;154328.19;5035907;28;20478;-84
2023/10/24 01:13:28;;;;;;;8.60;7.90;;;;;;;11.54;100.00;154323.03;5012858;28;20487;-84
2023/10/24 01:15:55;;;;;;;8.30;7.43;;;;;;;11.57;100.00;154330.75;5030342;28;20443;-85
2023/10/24 01:18:22;;;;;;;8.13;7.17;;;;;;;11.58;100.00;154333.38;5029539;28;21165;-84
2023/10/24 01:20:48;;;;;;;8.43;7.33;;;;;;;11.58;100.00;154333.38;5043670;28;20489;-84
2023/10/24 01:23:16;;;;;;;7.90;7.20;;;;;;;11.57;100.00;154332.06;5045923;28;20861;-84
2023/10/24 01:25:43;;;;;;;8.33;7.53;;;;;;;11.58;100.00;154334.66;5031492;28;20517;-84
2023/10/24 01:28:10;;;;;;;9.33;8.00;;;;;;;11.58;100.00;154334.66;5026480;28;20462;-84
2023/10/24 01:30:38;;;;;;;11.90;8.50;;;;;;;11.57;100.00;154330.75;5033139;28;20471;-84
2023/10/24 01:33:05;;;;;;;8.80;7.57;;;;;;;11.55;100.00;154325.59;5029455;28;20973;-84
2023/10/24 01:35:31;;;;;;;9.87;8.03;;;;;;;11.55;100.00;154326.88;5035970;28;20933;-84
2023/10/24 01:37:58;;;;;;;9.10;8.27;;;;;;;11.54;100.00;154323.03;5032072;28;20464;-84
2023/10/24 01:40:26;;;;;;;9.23;7.90;;;;;;;11.52;100.00;154319.09;5031037;28;20435;-84
2023/10/24 01:42:52;;;;;;;8.40;7.60;;;;;;;11.54;100.00;154323.03;5029161;28;20494;-84
2023/10/24 01:45:20;;;;;;;8.77;7.87;;;;;;;11.56;100.00;154328.19;5013329;28;20812;-85
2023/10/24 01:47:46;;;;;;;7.57;6.73;;;;;;;11.56;100.00;154328.19;5026310;28;20981;-85
2023/10/24 01:50:13;;;;;;;8.37;7.40;;;;;;;11.55;100.00;154325.59;5029258;28;21027;-85
2023/10/24 01:52:39;;;;;;;6.77;6.07;;;;;;;11.55;100.00;154325.59;5012257;28;20857;-84
2023/10/24 01:55:07;;;;;;;8.17;7.20;;;;;;;11.56;100.00;154329.50;5027240;28;20459;-84
2023/10/24 01:57:34;;;;;;;6.47;5.83;;;;;;;11.56;100.00;154328.19;5010234;28;20453;-85
2023/10/24 02:00:01;;;;;;;7.80;7.00;;;;;;;11.56;100.00;154328.19;5010703;28;20441;-84
2023/10/24 02:02:28;;;;;;;7.47;6.67;;;;;;;11.55;100.00;154326.88;5027240;28;20443;-85
2023/10/24 02:04:54;;;;;;;7.23;6.53;;;;;;;11.55;100.00;154326.88;5021389;28;20549;-84
2023/10/24 02:07:23;;;;;;;7.27;6.33;;;;;;;11.56;100.00;154329.50;5013088;28;20778;-85
2023/10/24 02:09:50;;;;;;;6.90;6.20;;;;;;;11.56;100.00;154328.19;5024937;28;20982;-85
2023/10/24 02:12:17;;;;;;;7.13;6.50;;;;;;;11.57;100.00;154330.75;5044246;28;20923;-85
2023/10/24 02:14:45;;;;;;;7.53;6.33;;;;;;;11.58;100.00;154334.66;5029464;28;20524;-84
2023/10/24 02:17:12;;;;;;;7.13;6.40;;;;;;;11.59;100.00;154335.97;5028053;28;20492;-84
2023/10/24 02:19:38;;;;;;;6.93;6.23;;;;;;;11.59;100.00;154335.97;5030401;28;20456;-84
2023/10/24 02:22:05;;;;;;;7.33;6.63;;;;;;;11.59;100.00;154337.28;5034070;28;20551;-83
2023/10/24 02:24:32;;;;;;;9.10;6.80;;;;;;;11.60;100.00;154338.53;5034105;28;20542;-83
2023/10/24 02:26:59;;;;;;;7.80;7.00;;;;;;;11.60;100.00;154338.53;5032035;28;20442;-83
2023/10/24 02:29:25;;;;;;;6.90;6.20;;;;;;;11.58;100.00;154333.38;5025616;28;20451;-83
2023/10/24 02:31:53;;;;;;;7.73;7.03;;;;;;;11.56;100.00;154329.50;5000716;28;20578;-83
2023/10/24 02:34:21;;;;;;;7.20;6.53;;;;;;;11.57;100.00;154330.75;5016983;28;20443;-84
2023/10/24 02:36:48;;;;;;;6.60;6.00;;;;;;;11.55;100.00;154326.88;5027611;28;20513;-83
2023/10/24 02:39:15;;;;;;;9.53;7.30;;;;;;;11.54;100.00;154323.03;5026500;28;20455;-83
2023/10/24 02:41:42;;;;;;;8.97;7.50;;;;;;;11.54;100.00;154324.28;5028083;28;20530;-83
2023/10/24 02:44:08;;;;;;;8.63;7.83;;;;;;;11.53;100.00;154320.41;5009294;28;20595;-84
2023/10/24 02:46:35;;;;;;;8.43;7.60;;;;;;;11.52;100.00;154317.81;5022647;28;20463;-83
2023/10/24 02:49:03;;;;;;;7.67;6.93;;;;;;;11.51;100.00;154315.25;5031149;28;20522;-84
2023/10/24 02:51:29;;;;;;;7.80;7.00;;;;;;;11.49;100.00;154311.31;5018553;28;20609;-84
2023/10/24 02:53:56;;;;;;;7.57;6.77;;;;;;;11.47;100.00;154306.16;5024498;28;20449;-84
2023/10/24 02:56:22;;;;;;;7.30;6.50;;;;;;;11.47;100.00;154306.16;5029435;28;20968;-84
2023/10/24 02:58:49;;;;;;;8.23;7.20;;;;;;;11.50;100.00;154312.63;5010400;28;20530;-84
2023/10/24 03:01:15;;;;;;;7.67;7.00;;;;;;;11.45;100.00;154299.69;5034243;28;20450;-84
2023/10/24 03:03:42;;;;;;;9.43;7.10;;;;;;;11.44;100.00;154298.38;5024939;28;20534;-83
2023/10/24 03:06:17;;;;;;;8.27;7.47;;;;;;;11.44;100.00;154298.38;5022496;28;20930;-83
2023/10/24 03:08:44;;;;;;;9.77;8.43;;;;;;;11.46;100.00;154302.28;5021831;28;20435;-84
2023/10/24 03:11:10;;;;;;;7.47;6.77;;;;;;;11.45;100.00;154299.69;5024749;28;20463;-83
2023/10/24 03:13:37;;;;;;;9.80;7.63;;;;;;;11.41;100.00;154289.34;5018411;28;20487;-83
2023/10/24 03:16:19;;;;;;;8.60;7.70;;;;;;;11.39;100.00;154285.41;5001609;28;20468;-83
2023/10/24 03:18:45;;;;;;;7.97;7.17;;;;;;;11.41;100.00;154289.34;5024632;28;21046;-84
2023/10/24 03:21:12;;;;;;;7.77;7.07;;;;;;;11.41;100.00;154289.34;5012950;28;20456;-84
2023/10/24 03:23:41;;;;;;;8.00;7.20;;;;;;;11.40;100.00;154286.72;5011284;28;20497;-83
2023/10/24 03:26:08;;;;;;;7.27;6.47;;;;;;;11.37;100.00;154280.25;5026879;28;20502;-83
2023/10/24 03:28:34;;;;;;;8.33;7.37;;;;;;;11.38;100.00;154281.56;5024397;28;20994;-84
2023/10/24 03:31:01;;;;;;;8.60;7.50;;;;;;;11.39;100.00;154284.13;5026674;28;20520;-83
2023/10/24 03:33:27;;;;;;;9.47;8.10;;;;;;;11.38;100.00;154281.56;5026882;28;20486;-83
2023/10/24 03:35:55;;;;;;;7.73;7.03;;;;;;;11.39;100.00;154284.13;5043488;28;20898;-83
2023/10/24 03:38:21;;;;;;;9.20;8.17;;;;;;;11.39;100.00;154284.13;5026716;28;20458;-84
2023/10/24 03:40:49;;;;;;;8.50;7.70;;;;;;;11.38;100.00;154282.84;5027032;28;20723;-84
2023/10/24 03:43:16;;;;;;;10.07;8.03;;;;;;;11.37;100.00;154278.94;5027051;28;20482;-84
2023/10/24 03:45:43;;;;;;;7.60;7.00;;;;;;;11.36;100.00;154276.34;5015229;28;20804;-83
2023/10/24 03:48:10;;;;;;;9.33;7.87;;;;;;;11.35;100.00;154273.78;5019815;28;20790;-83
2023/10/24 03:50:37;;;;;;;7.07;6.37;;;;;;;11.35;100.00;154273.78;5027333;28;20996;-83
2023/10/24 03:53:04;;;;;;;7.37;6.67;;;;;;;11.34;100.00;154272.47;5028459;28;20593;-83
2023/10/24 03:55:31;;;;;;;7.20;6.47;;;;;;;11.36;100.00;154276.34;5024643;28;20493;-84
2023/10/24 03:57:59;;;;;;;6.50;5.90;;;;;;;11.33;100.00;154269.84;5022704;28;20467;-84
2023/10/24 04:00:26;;;;;;;7.50;6.10;;;;;;;11.34;100.00;154271.16;5026067;28;21210;-83
2023/10/24 04:02:53;;;;;;;6.93;5.93;;;;;;;11.37;100.00;154278.94;5024835;28;20458;-84
2023/10/24 04:05:19;;;;;;;9.63;6.47;;;;;;;11.38;100.00;154281.56;5019468;28;20464;-84
2023/10/24 04:07:46;;;;;;;9.57;8.67;;;;;;;11.36;100.00;154276.34;5025798;28;20467;-83
2023/10/24 04:10:13;;;;;;;10.37;9.33;;;;;;;11.36;100.00;154277.63;5023535;28;20469;-83
2023/10/24 04:12:39;;;;;;;7.63;6.93;;;;;;;11.37;100.00;154278.94;5028584;28;20914;-83
2023/10/24 04:15:09;;;;;;;8.80;7.63;;;;;;;11.40;100.00;154286.72;5034101;28;20515;-83
2023/10/24 04:17:36;;;;;;;9.80;7.30;;;;;;;11.44;100.00;154297.06;5024684;28;20435;-83
2023/10/24 04:20:02;;;;;;;11.00;8.43;;;;;;;11.42;100.00;154293.19;5032051;28;20548;-83
2023/10/24 04:22:29;;;;;;;9.23;8.33;;;;;;;11.42;100.00;154293.19;5047702;28;20438;-83
2023/10/24 04:24:55;;;;;;;8.33;7.53;;;;;;;11.39;100.00;154284.13;5024926;28;21036;-83
2023/10/24 04:27:24;;;;;;;7.83;7.13;;;;;;;11.37;100.00;154278.94;5025893;28;20451;-83
2023/10/24 04:29:50;;;;;;;7.63;6.93;;;;;;;11.40;100.00;154288.03;5022360;28;21055;-83
2023/10/24 04:32:18;;;;;;;8.67;7.87;;;;;;;11.39;100.00;154285.41;5026321;28;21026;-83
2023/10/24 04:34:45;;;;;;;9.37;8.37;;;;;;;11.38;100.00;154281.56;5030505;28;20800;-83
2023/10/24 04:37:14;;;;;;;8.70;7.87;;;;;;;11.38;100.00;154281.56;5027521;28;20460;-84
2023/10/24 04:39:41;;;;;;;7.77;6.97;;;;;;;11.35;100.00;154273.78;5030611;28;20451;-84
2023/10/24 04:42:08;;;;;;;8.27;7.53;;;;;;;11.36;100.00;154277.63;5032621;28;20450;-84
2023/10/24 04:44:35;;;;;;;8.23;7.43;;;;;;;11.34;100.00;154271.16;5011517;28;20432;-84
2023/10/24 04:47:02;;;;;;;8.47;7.60;;;;;;;11.34;100.00;154271.16;5021258;28;20458;-84
2023/10/24 04:49:31;;;;;;;8.40;7.60;;;;;;;11.32;100.00;154266.00;5029973;28;20497;-84
2023/10/24 04:51:57;;;;;;;8.80;7.90;;;;;;;11.32;100.00;154267.31;5031242;28;20451;-83
2023/10/24 04:54:24;;;;;;;9.00;8.03;;;;;;;11.30;100.00;154260.81;5031540;28;20448;-83
2023/10/24 04:56:50;;;;;;;10.23;8.07;;;;;;;11.30;100.00;154262.13;5019958;28;20847;-83
2023/10/24 04:59:18;;;;;;;7.77;6.93;;;;;;;11.30;100.00;154260.81;5051942;28;20447;-84
2023/10/24 05:01:44;;;;;;;8.00;7.20;;;;;;;11.30;100.00;154262.13;5013959;28;20546;-84
2023/10/24 05:04:12;;;;;;;8.33;7.20;;;;;;;11.29;100.00;154258.22;5023270;28;20506;-84
2023/10/24 05:06:43;;;;;;;12.57;8.23;;;;;;;11.28;100.00;154255.66;5019680;28;20807;-84
2023/10/24 05:09:16;;;;;;;10.30;8.17;;;;;;;11.29;100.00;154259.53;5019574;28;20546;-85
2023/10/24 05:11:42;;;;;;;8.57;7.73;;;;;;;11.30;100.00;154260.81;5001026;28;20455;-84
2023/10/24 05:14:09;;;;;;;8.47;6.97;;;;;;;11.29;100.00;154258.22;5019023;28;20945;-84
2023/10/24 05:16:35;;;;;;;8.97;8.07;;;;;;;11.27;100.00;154253.03;5001305;28;20456;-84
2023/10/24 05:19:02;;;;;;;8.57;7.67;;;;;;;11.27;100.00;154254.34;5015847;28;20464;-84
2023/10/24 05:21:28;;;;;;;9.83;8.73;;;;;;;11.28;100.00;154256.91;5019399;28;20963;-84
2023/10/24 05:23:56;;;;;;;8.30;7.40;;;;;;;11.28;100.00;154255.66;5017461;28;20455;-84
2023/10/24 05:26:23;;;;;;;8.97;7.47;;;;;;;11.27;100.00;154254.34;5002148;28;20929;-84
2023/10/24 05:28:52;;;;;;;8.10;7.27;;;;;;;11.26;100.00;154250.44;5020847;28;21035;-85
2023/10/24 05:31:20;;;;;;;9.10;7.67;;;;;;;11.27;100.00;154254.34;5016203;28;20455;-84
2023/10/24 05:33:49;;;;;;;10.00;7.97;;;;;;;11.27;100.00;154253.03;5015872;28;20570;-84
2023/10/24 05:36:16;;;;;;;8.20;7.40;;;;;;;11.28;100.00;154255.66;5013295;28;20551;-84
2023/10/24 05:38:43;;;;;;;9.87;7.67;;;;;;;11.27;100.00;154253.03;5016510;28;20513;-85
2023/10/24 05:41:11;;;;;;;9.97;9.00;;;;;;;11.27;100.00;154253.03;5001295;28;20546;-85
2023/10/24 05:43:39;;;;;;;10.20;9.30;;;;;;;11.26;100.00;154250.44;4999241;28;20456;-85
2023/10/24 05:46:06;;;;;;;9.17;8.30;;;;;;;11.29;100.00;154258.22;5000735;28;20496;-85
2023/10/24 05:48:32;;;;;;;10.13;9.00;;;;;;;11.27;100.00;154254.34;4999258;28;20471;-85
2023/10/24 05:50:59;;;;;;;12.50;10.13;;;;;;;11.27;100.00;154253.03;5014300;28;20453;-85
2023/10/24 05:53:25;;;;;;;11.43;9.47;;;;;;;11.25;100.00;154249.13;5016394;28;20475;-85
2023/10/24 05:55:52;;;;;;;10.27;9.20;;;;;;;11.25;100.00;154249.13;4999789;28;20455;-84
2023/10/24 05:58:21;;;;;;;9.67;8.77;;;;;;;11.25;100.00;154249.13;5001045;28;20456;-85
2023/10/24 06:00:47;;;;;;;9.27;8.37;;;;;;;11.27;100.00;154253.03;4995528;28;20456;-85
2023/10/24 06:06:11;;;;;;;8.50;7.60;;;;;;;11.32;100.00;154266.00;4997260;28;20467;-85
2023/10/24 06:08:40;;;;;;;9.20;8.40;;;;;;;11.31;100.00;154263.38;5018171;28;20452;-85
2023/10/24 06:11:07;;;;;;;11.57;8.97;;;;;;;11.33;100.00;154268.59;5016155;28;20539;-86
2023/10/24 06:13:35;;;;;;;10.47;8.03;;;;;;;11.33;100.00;154268.59;5013496;28;20491;-85
2023/10/24 06:16:08;;;;;;;8.13;7.37;;;;;;;11.33;100.00;154268.59;4998961;28;20873;-85
2023/10/24 06:18:35;;;;;;;8.97;7.77;;;;;;;11.33;100.00;154269.84;4996452;28;20461;-85
2023/10/24 06:21:17;;;;;;;10.13;8.13;;;;;;;11.33;100.00;154268.59;4997821;28;20468;-85
2023/10/24 06:23:45;;;;;;;9.17;8.37;;;;;;;11.33;100.00;154268.59;4986335;28;20459;-85
2023/10/24 06:26:13;;;;;;;8.87;7.40;;;;;;;11.34;100.00;154271.16;5016485;28;20517;-85
2023/10/24 06:28:40;;;;;;;8.20;7.40;;;;;;;11.33;100.00;154269.84;5018694;28;20995;-85
2023/10/24 06:31:07;;;;;;;9.50;7.40;;;;;;;11.37;100.00;154278.94;5035311;28;20466;-85
2023/10/24 06:33:34;;;;;;;8.00;7.17;;;;;;;11.41;100.00;154289.34;5024141;28;20544;-85
2023/10/24 06:36:01;;;;;;;7.67;6.87;;;;;;;11.46;100.00;154302.28;5023285;28;20499;-85
2023/10/24 06:38:27;;;;;;;8.23;6.70;;;;;;;11.46;100.00;154302.28;5023392;28;20461;-85
2023/10/24 06:40:55;;;;;;;8.57;6.60;;;;;;;11.47;100.00;154306.16;5018652;28;20460;-85
2023/10/24 06:43:22;;;;;;;8.63;7.70;;;;;;;11.50;100.00;154312.63;5017458;28;21174;-84
2023/10/24 06:45:50;;;;;;;8.07;7.23;;;;;;;11.52;100.00;154319.09;5013364;28;20452;-84
2023/10/24 06:48:17;;;;;;;8.00;7.20;;;;;;;11.53;100.00;154320.41;5001184;28;20816;-84
2023/10/24 06:50:43;;;;;;;8.27;7.47;;;;;;;11.54;100.00;154323.03;5016501;28;20510;-83
2023/10/24 06:53:10;;;;;;;8.17;7.37;;;;;;;11.55;100.00;154325.59;5018217;28;20480;-84
2023/10/24 06:55:37;;;;;;;8.60;7.70;;;;;;;11.55;100.00;154325.59;5016219;28;20460;-82
2023/10/24 06:58:04;;;;;;;7.63;6.87;;;;;;;11.56;100.00;154328.19;5000664;28;20498;-84
2023/10/24 07:00:30;;;;;;;10.00;8.87;;;;;;;11.58;100.00;154333.38;4997927;28;20483;-84
2023/10/24 07:02:59;;;;;;;9.30;8.37;;;;;;;11.58;100.00;154334.66;5012735;28;20509;-85
2023/10/24 07:05:26;;;;;;;9.67;8.70;;;;;;;11.58;100.00;154333.38;5015633;28;20474;-83
2023/10/24 07:07:52;;;;;;;9.40;7.97;;;;;;;11.57;100.00;154330.75;5015829;28;20546;-84
2023/10/24 07:10:20;;;;;;;9.13;8.23;;;;;;;11.58;100.00;154333.38;5017013;28;20448;-83
2023/10/24 07:12:46;;;;;;;8.87;7.97;;;;;;;11.57;100.00;154330.75;5017485;28;20449;-86
2023/10/24 07:15:13;;;;;;;9.30;7.40;;;;;;;11.56;100.00;154328.19;5017631;28;20479;-86
2023/10/24 07:17:39;;;;;;;8.67;7.73;;;;;;;11.59;100.00;154335.97;5013292;28;20453;-86
2023/10/24 07:20:08;;;;;;;8.63;7.60;;;;;;;11.60;100.00;154339.84;4999051;28;20463;-87
2023/10/24 07:22:35;;;;;;;8.87;7.90;;;;;;;11.60;100.00;154338.53;5016352;28;20533;-91
2023/10/24 07:25:02;;;;;;;8.47;7.60;;;;;;;11.60;100.00;154339.84;5017975;28;20840;-85
2023/10/24 07:27:28;;;;;;;9.47;8.57;;;;;;;11.60;100.00;154339.84;5015568;28;21004;-85
2023/10/24 07:29:54;;;;;;;8.17;7.40;;;;;;;11.61;100.00;154341.16;5013427;28;20519;-86
2023/10/24 07:32:21;;;;;;;7.53;6.83;;;;;;;11.60;100.00;154338.53;4998042;28;20455;-85
2023/10/24 07:34:48;;;;;;;10.47;8.73;;;;;;;11.60;100.00;154338.53;5015864;28;20467;-85
2023/10/24 07:37:16;;;;;;;8.87;7.97;;;;;;;11.60;100.00;154339.84;5015257;28;20838;-85
2023/10/24 07:39:43;;;;;;;7.77;6.97;;;;;;;11.64;100.00;154348.94;4998061;28;20954;-85
2023/10/24 07:42:10;;;;;;;9.40;8.40;;;;;;;11.63;100.00;154347.63;5015331;28;20962;-85
2023/10/24 07:44:36;;;;;;;8.73;7.83;;;;;;;11.63;100.00;154347.63;5016882;28;20459;-85
2023/10/24 07:47:03;;;;;;;9.00;7.90;;;;;;;11.63;100.00;154347.63;5015480;28;20460;-86
2023/10/24 07:49:30;;;;;;;9.63;8.13;;;;;;;11.63;100.00;154347.63;4998209;28;20862;-86
2023/10/24 07:51:56;;;;;;;9.33;8.07;;;;;;;11.65;100.00;154351.50;5016066;28;20460;-80
2023/10/24 07:54:24;;;;;;;8.47;7.67;;;;;;;11.65;100.00;154351.50;5001267;28;20530;-87
2023/10/24 07:56:50;;;;;;;9.00;8.10;;;;;;;11.66;100.00;154352.78;5017478;28;20984;-86
2023/10/24 07:59:18;;;;;;;9.00;8.10;;;;;;;11.67;100.00;154355.41;5016159;28;20456;-86
2023/10/24 08:01:44;;;;;;;8.23;7.43;;;;;;;11.70;100.00;154364.53;5016159;28;20960;-86
2023/10/24 08:04:11;;;;;;;7.60;6.80;;;;;;;11.72;100.00;154368.41;5016789;28;20447;-87
2023/10/24 08:06:37;;;;;;;8.20;6.90;;;;;;;11.72;100.00;154369.72;5015005;28;20464;-87
2023/10/24 08:09:04;;;;;;;6.43;5.73;;;;;;;11.72;100.00;154369.72;5014429;28;20917;-86
2023/10/24 08:11:32;;;;;;;7.63;6.93;;;;;;;11.77;100.00;154382.66;5015203;28;20452;-86
2023/10/24 08:13:59;;;;;;;11.00;7.30;;;;;;;11.78;100.00;154383.97;5017065;28;20487;-86
2023/10/24 08:16:25;;;;;;;8.10;7.13;;;;;;;11.78;100.00;154385.22;5004010;28;20456;-86
2023/10/24 08:18:52;;;;;;;9.10;8.20;;;;;;;11.79;100.00;154387.84;5023734;28;20540;-85
2023/10/24 08:21:18;;;;;;;9.10;7.97;;;;;;;11.81;100.00;154393.00;5022341;28;20456;-86
2023/10/24 08:23:45;;;;;;;10.17;8.20;;;;;;;11.80;100.00;154390.44;5024789;28;20451;-86
2023/10/24 08:26:11;;;;;;;9.20;8.00;;;;;;;11.81;100.00;154393.00;5021156;28;20459;-85
2023/10/24 08:28:39;;;;;;;9.83;7.30;;;;;;;11.83;100.00;154398.22;5020064;28;20514;-86
2023/10/24 08:31:05;;;;;;;9.13;8.23;;;;;;;11.85;100.00;154402.09;5022480;28;20467;-86
2023/10/24 08:33:33;;;;;;;8.87;6.83;;;;;;;11.86;100.00;154405.97;5003856;28;20793;-86
2023/10/24 08:35:59;;;;;;;8.03;6.20;;;;;;;11.88;100.00;154409.88;5021377;28;20537;-85
2023/10/24 08:38:26;;;;;;;6.40;5.80;;;;;;;11.90;100.00;154415.06;5019990;28;20490;-86
2023/10/24 08:40:52;;;;;;;8.60;7.07;;;;;;;11.92;100.00;154421.53;5005669;28;20622;-86
2023/10/24 08:43:20;;;;;;;7.87;6.30;;;;;;;11.94;100.00;154426.72;5000738;28;20808;-86
2023/10/24 08:45:49;;;;;;;8.50;6.30;;;;;;;11.96;100.00;154430.63;5022878;28;20451;-86
2023/10/24 08:48:16;;;;;;;8.57;7.73;;;;;;;11.97;100.00;154433.19;5022244;28;21046;-86
2023/10/24 08:50:43;;;;;;;10.33;9.37;;;;;;;11.95;100.00;154429.31;5004547;28;20529;-85
2023/10/24 08:53:11;;;;;;;10.20;9.20;;;;;;;11.92;100.00;154420.22;5002887;28;20827;-86
2023/10/24 08:55:38;;;;;;;11.60;9.27;;;;;;;11.90;100.00;154416.38;5008591;28;20537;-87
2023/10/24 08:58:05;;;;;;;14.40;12.90;;;;;;;11.90;100.00;154415.06;5004642;28;20490;-86
2023/10/24 09:00:32;;;;;;;11.13;10.00;;;;;;;11.89;100.00;154413.75;5019156;28;20439;-86
2023/10/24 09:03:01;;;;;;;9.50;8.47;;;;;;;11.89;100.00;154413.75;5021001;28;20864;-84
2023/10/24 09:05:28;;;;;;;10.17;8.70;;;;;;;11.89;100.00;154413.75;5023482;28;20519;-86
2023/10/24 09:07:56;;;;;;;9.30;8.40;;;;;;;11.87;100.00;154408.56;5021989;28;20449;-86
2023/10/24 09:10:22;;;;;;;11.67;8.60;;;;;;;11.88;100.00;154411.19;5023222;28;20459;-86
2023/10/24 09:12:53;;;;;;;9.53;8.63;;;;;;;11.89;100.00;154413.75;5022155;28;20456;-87
2023/10/24 09:15:19;;;;;;;10.47;9.37;;;;;;;11.92;100.00;154421.53;5022323;28;21046;-87
2023/10/24 09:17:46;;;;;;;11.80;8.87;;;;;;;11.93;100.00;154424.16;5001243;28;20452;-87
2023/10/24 09:20:18;;;;;;;10.20;8.23;;;;;;;11.94;100.00;154426.72;5020466;28;20994;-88
2023/10/24 09:22:44;;;;;;;12.67;10.27;;;;;;;11.98;100.00;154437.09;5010710;28;20453;-88
2023/10/24 09:25:12;;;;;;;9.50;7.87;;;;;;;12.01;100.00;154444.91;5022264;28;20479;-88
2023/10/24 09:27:39;;;;;;;10.20;8.43;;;;;;;12.03;100.00;154450.06;5019103;28;20456;-89
2023/10/24 09:30:10;;;;;;;11.00;8.50;;;;;;;12.05;100.00;154453.94;5000046;28;20455;-88
2023/10/24 09:32:39;;;;;;;10.10;9.20;;;;;;;12.05;100.00;154453.94;5017928;28;20456;-89
2023/10/24 09:35:06;;;;;;;13.70;10.77;;;;;;;12.06;100.00;154457.84;5019432;28;20737;-89
2023/10/24 09:37:34;;;;;;;13.50;9.10;;;;;;;12.08;100.00;154463.03;5016038;28;20470;-90
2023/10/24 09:40:03;;;;;;;13.37;9.33;;;;;;;12.12;100.00;154473.41;5017074;28;21097;-90
2023/10/24 09:42:31;;;;;;;10.83;9.70;;;;;;;12.12;100.00;154473.41;5020931;28;20947;-90
2023/10/24 09:45:00;;;;;;;10.50;8.90;;;;;;;12.15;100.00;154481.16;5000018;28;20533;-90
2023/10/24 09:47:27;;;;;;;11.03;9.57;;;;;;;12.16;100.00;154483.78;5009421;28;20448;-93
2023/10/24 09:49:55;;;;;;;11.07;9.80;;;;;;;12.17;100.00;154485.06;5022064;28;20459;-92
2023/10/24 09:52:23;;;;;;;11.57;10.37;;;;;;;12.17;100.00;154485.06;5000626;28;20451;-92
2023/10/24 09:54:52;;;;;;;11.43;10.10;;;;;;;12.18;100.00;154488.94;5023709;28;20480;-92
2023/10/24 09:57:19;;;;;;;10.40;9.33;;;;;;;12.19;100.00;154490.25;5019902;28;20518;-92
2023/10/24 09:59:47;;;;;;;10.90;9.10;;;;;;;12.21;100.00;154495.41;5022980;28;20498;-92
2023/10/24 10:02:14;;;;;;;10.53;9.53;;;;;;;12.22;100.00;154498.03;5000829;28;20563;-92
2023/10/24 10:04:41;;;;;;;13.70;10.10;;;;;;;12.21;100.00;154496.72;4998736;28;20456;-92
2023/10/24 10:07:10;;;;;;;11.77;10.57;;;;;;;12.23;100.00;154500.66;5001048;28;20452;-91
2023/10/24 10:09:37;;;;;;;10.93;9.83;;;;;;;12.24;100.00;154503.19;5020711;28;20467;-91
2023/10/24 10:12:08;;;;;;;11.70;10.13;;;;;;;12.28;100.00;154512.31;5004140;28;20451;-91
2023/10/24 10:14:40;;;;;;;10.87;9.77;;;;;;;12.30;100.00;154517.47;5003349;28;20495;-90
2023/10/24 10:17:14;;;;;;;11.30;10.20;;;;;;;12.30;100.00;154517.47;5020445;28;20447;-91
2023/10/24 10:19:57;;;;;;;10.87;9.87;;;;;;;12.32;100.00;154523.94;5002723;28;20460;-90
2023/10/24 10:22:38;;;;;;;9.53;8.63;;;;;;;12.35;100.00;154530.44;5019204;28;20976;-91
2023/10/24 10:25:40;;;;;;;10.40;9.40;;;;;;;12.36;100.00;154533.03;5005213;28;20811;-90
2023/10/24 10:28:16;;;;;;;10.77;9.40;;;;;;;12.37;100.00;154536.91;4978242;28;21049;-90
2023/10/24 10:30:49;;;;;;;11.23;9.83;;;;;;;12.41;100.00;154547.31;5016245;28;20510;-90
2023/10/24 10:33:19;;;;;;;9.80;8.90;;;;;;;12.44;100.00;154553.78;5018774;28;20455;-90
2023/10/24 10:35:50;;;;;;;12.20;9.57;;;;;;;12.44;100.00;154553.78;5007992;28;20577;-90
2023/10/24 10:38:36;;;;;;;9.47;8.47;;;;;;;12.47;100.00;154562.84;5019765;28;20455;-90
2023/10/24 10:41:36;;;;;;;10.20;9.20;;;;;;;12.48;100.00;154565.44;5016254;28;20456;-90
2023/10/24 10:44:48;;;;;;;10.50;9.40;;;;;;;12.49;100.00;154566.75;4998258;28;20958;-89
2023/10/24 10:47:16;;;;;;;14.13;9.97;;;;;;;12.51;100.00;154571.94;5016658;28;20452;-89
2023/10/24 10:49:45;;;;;;;11.37;10.23;;;;;;;12.50;100.00;154570.63;5002288;28;20478;-90
2023/10/24 10:52:43;;;;;;;10.53;8.37;;;;;;;12.50;100.00;154570.63;5002796;28;20458;-89
2023/10/24 10:55:30;;;;;;;10.03;9.03;;;;;;;12.53;100.00;154577.09;5018206;28;20501;-89
2023/10/24 10:58:03;;;;;;;10.60;9.60;;;;;;;12.52;100.00;154575.78;5018832;28;20448;-88
2023/10/24 11:00:37;;;;;;;11.33;8.70;;;;;;;12.56;100.00;154584.91;5017437;28;20450;-88
2023/10/24 11:03:17;;;;;;;9.60;8.40;;;;;;;12.55;100.00;154583.59;5000118;28;20844;-89
2023/10/24 11:05:50;;;;;;;9.50;8.50;;;;;;;12.58;100.00;154590.06;5014353;28;21016;-89
2023/10/24 11:08:20;;;;;;;10.40;9.30;;;;;;;12.58;100.00;154590.06;5000670;28;20459;-88
2023/10/24 11:10:52;;;;;;;8.87;7.47;;;;;;;12.59;100.00;154592.69;5017791;28;20456;-88
2023/10/24 11:13:32;;;;;;;10.93;8.00;;;;;;;12.60;100.00;154595.28;5016059;28;20574;-87
2023/10/24 11:15:59;;;;;;;8.97;8.00;;;;;;;12.60;100.00;154596.56;5016997;28;20554;-87
2023/10/24 11:18:27;;;;;;;8.63;7.83;;;;;;;12.62;100.00;154600.47;5021059;28;20513;-87
2023/10/24 11:20:53;;;;;;;8.50;7.37;;;;;;;12.62;100.00;154600.47;5004210;28;20444;-87
2023/10/24 11:23:20;;;;;;;9.67;8.60;;;;;;;12.62;100.00;154600.47;5003673;28;20557;-87